createdAt,value
2017-02-14T00:00:01.096Z,1.33
2017-02-14T00:01:12.543Z,1.29
2017-02-14T00:02:24.009Z,1.38
2017-02-14T00:03:35.447Z,1.33
2017-02-14T00:04:46.901Z,1.32
2017-02-14T00:05:58.338Z,1.29
2017-02-14T00:07:09.988Z,1.32
2017-02-14T00:08:21.422Z,1.22
2017-02-14T00:09:32.908Z,1.28
2017-02-14T00:10:44.550Z,1.26
2017-02-14T00:11:55.980Z,1.22
2017-02-14T00:13:07.457Z,1.2
2017-02-14T00:14:18.922Z,1.24
2017-02-14T00:15:30.352Z,1.22
2017-02-14T00:16:41.775Z,1.17
2017-02-14T00:17:53.223Z,1.17
2017-02-14T00:19:04.655Z,1.21
2017-02-14T00:20:16.363Z,1.11
2017-02-14T00:21:27.818Z,1.14
2017-02-14T00:22:39.249Z,1.1
2017-02-14T00:23:50.698Z,1.1
2017-02-14T00:25:02.151Z,1.12
2017-02-14T00:26:13.587Z,1.24
2017-02-14T00:27:25.025Z,1.17
2017-02-14T00:28:36.478Z,1.12
2017-02-14T00:29:47.932Z,1.12
2017-02-14T00:30:59.415Z,1.08
2017-02-14T00:32:10.864Z,1.14
2017-02-14T00:33:22.332Z,1.08
2017-02-14T00:34:33.779Z,1.07
2017-02-14T00:35:45.229Z,1.08
2017-02-14T00:36:56.682Z,1.07
2017-02-14T00:38:08.125Z,1.04
2017-02-14T00:39:19.571Z,1.07
2017-02-14T00:40:31.008Z,1.11
2017-02-14T00:41:42.467Z,1.07
2017-02-14T00:42:53.910Z,1.08
2017-02-14T00:44:05.356Z,1.02
2017-02-14T00:45:16.776Z,1.08
2017-02-14T00:46:28.215Z,1.08
2017-02-14T00:47:39.655Z,1.11
2017-02-14T00:48:51.078Z,1.08
2017-02-14T00:50:02.502Z,1.1
2017-02-14T00:51:13.952Z,1.07
2017-02-14T00:52:25.429Z,1.04
2017-02-14T00:53:37.071Z,1.07
2017-02-14T00:54:48.492Z,1.07
2017-02-14T00:55:59.920Z,1.03
2017-02-14T00:57:11.332Z,1.07
2017-02-14T00:58:22.794Z,1.03
2017-02-14T00:59:34.256Z,1.02
2017-02-14T01:00:45.888Z,1.1
2017-02-14T01:01:57.552Z,1.11
2017-02-14T01:03:09.241Z,1.12
2017-02-14T01:04:20.686Z,0.93
2017-02-14T01:05:32.132Z,1.04
2017-02-14T01:06:43.769Z,1
2017-02-14T01:07:55.216Z,0.97
2017-02-14T01:09:06.875Z,0.97
2017-02-14T01:10:18.301Z,0.96
2017-02-14T01:11:29.753Z,1.04
2017-02-14T01:12:41.191Z,1.1
2017-02-14T01:13:52.669Z,1.04
2017-02-14T01:15:04.133Z,1.02
2017-02-14T01:16:15.786Z,0.96
2017-02-14T01:17:27.425Z,0.97
2017-02-14T01:18:38.868Z,1.02
2017-02-14T01:19:50.485Z,0.92
2017-02-14T01:21:01.930Z,0.96
2017-02-14T01:22:13.357Z,0.97
2017-02-14T01:23:24.801Z,0.96
2017-02-14T01:24:36.492Z,0.93
2017-02-14T01:25:47.923Z,0.96
2017-02-14T01:26:59.363Z,1
2017-02-14T01:28:10.794Z,0.86
2017-02-14T01:29:22.233Z,0.92
2017-02-14T01:30:33.666Z,0.93
2017-02-14T01:31:45.120Z,0.85
2017-02-14T01:32:56.549Z,0.89
2017-02-14T01:34:08.183Z,0.86
2017-02-14T01:35:19.607Z,0.85
2017-02-14T01:36:31.106Z,0.82
2017-02-14T01:37:42.559Z,0.78
2017-02-14T01:38:53.984Z,0.71
2017-02-14T01:40:05.447Z,0.66
2017-02-14T01:41:16.886Z,0.66
2017-02-14T01:42:28.337Z,0.63
2017-02-14T01:43:39.775Z,0.64
2017-02-14T01:44:51.422Z,0.66
2017-02-14T01:46:02.920Z,0.66
2017-02-14T01:47:14.360Z,0.67
2017-02-14T01:48:26.022Z,0.58
2017-02-14T01:49:37.450Z,0.66
2017-02-14T01:50:48.877Z,0.58
2017-02-14T01:52:00.299Z,0.66
2017-02-14T01:53:11.747Z,0.66
2017-02-14T01:54:23.189Z,0.6
2017-02-14T01:55:34.631Z,0.58
2017-02-14T01:56:46.119Z,0.57
2017-02-14T01:57:57.590Z,0.66
2017-02-14T01:59:09.017Z,0.6
2017-02-14T02:00:20.515Z,0.67
2017-02-14T02:01:32.175Z,0.53
2017-02-14T02:02:43.632Z,0.52
2017-02-14T02:03:55.070Z,0.56
2017-02-14T02:05:06.512Z,0.41
2017-02-14T02:06:17.963Z,0.44
2017-02-14T02:07:29.653Z,0.47
2017-02-14T02:08:41.076Z,0.44
2017-02-14T02:09:52.514Z,0.41
2017-02-14T02:11:03.971Z,0.45
2017-02-14T02:12:15.435Z,0.45
2017-02-14T02:13:26.881Z,0.41
2017-02-14T02:14:38.335Z,0.48
2017-02-14T02:15:49.791Z,0.64
2017-02-14T02:17:01.420Z,0.6
2017-02-14T02:18:12.842Z,0.6
2017-02-14T02:19:24.697Z,0.57
2017-02-14T02:20:36.128Z,0.64
2017-02-14T02:21:47.549Z,0.6
2017-02-14T02:22:59.189Z,0.6
2017-02-14T02:24:10.673Z,0.66
2017-02-14T02:25:22.116Z,0.58
2017-02-14T02:26:33.578Z,0.63
2017-02-14T02:27:45.034Z,0.6
2017-02-14T02:28:56.526Z,0.58
2017-02-14T02:30:07.976Z,0.61
2017-02-14T02:31:19.595Z,0.61
2017-02-14T02:32:31.041Z,0.61
2017-02-14T02:33:42.468Z,0.67
2017-02-14T02:34:53.961Z,0.75
2017-02-14T02:36:05.596Z,0.81
2017-02-14T02:37:17.033Z,0.75
2017-02-14T02:38:28.687Z,0.94
2017-02-14T02:39:40.172Z,0.92
2017-02-14T02:40:51.611Z,0.99
2017-02-14T02:42:03.059Z,0.94
2017-02-14T02:43:14.506Z,1.03
2017-02-14T02:44:25.930Z,0.96
2017-02-14T02:45:37.367Z,1.04
2017-02-14T02:46:48.793Z,1.03
2017-02-14T02:48:00.438Z,1.02
2017-02-14T02:49:11.885Z,1.14
2017-02-14T02:50:23.375Z,1.14
2017-02-14T02:51:34.826Z,1.08
2017-02-14T02:52:46.255Z,1.17
2017-02-14T02:53:57.680Z,1.24
2017-02-14T02:55:09.312Z,1.24
2017-02-14T02:56:20.766Z,1.24
2017-02-14T02:57:32.193Z,1.15
2017-02-14T02:58:43.624Z,1.15
2017-02-14T02:59:55.469Z,1.22
2017-02-14T03:01:06.962Z,1.17
2017-02-14T03:02:18.381Z,1.2
2017-02-14T03:03:29.829Z,1.15
2017-02-14T03:04:41.288Z,1.18
2017-02-14T03:05:52.741Z,1.14
2017-02-14T03:07:04.198Z,1.12
2017-02-14T03:08:16.059Z,1.14
2017-02-14T03:09:27.708Z,1.14
2017-02-14T03:10:39.145Z,1.14
2017-02-14T03:11:50.587Z,1.12
2017-02-14T03:13:02.095Z,1.12
2017-02-14T03:14:13.536Z,1.12
2017-02-14T03:15:24.977Z,1.17
2017-02-14T03:16:36.404Z,1.18
2017-02-14T03:17:47.823Z,1.24
2017-02-14T03:18:59.257Z,1.07
2017-02-14T03:20:10.683Z,1.11
2017-02-14T03:21:22.109Z,1.14
2017-02-14T03:22:33.586Z,1.11
2017-02-14T03:23:45.420Z,1.12
2017-02-14T03:24:56.882Z,1.12
2017-02-14T03:26:08.318Z,1.15
2017-02-14T03:27:19.743Z,1.18
2017-02-14T03:28:31.182Z,1.11
2017-02-14T03:29:42.623Z,1.14
2017-02-14T03:30:54.069Z,1.17
2017-02-14T03:32:05.500Z,1.11
2017-02-14T03:33:16.985Z,1.1
2017-02-14T03:34:28.442Z,1.11
2017-02-14T03:35:39.877Z,1.07
2017-02-14T03:36:51.310Z,1.18
2017-02-14T03:38:02.966Z,1.1
2017-02-14T03:39:14.393Z,1.08
2017-02-14T03:40:26.014Z,1.04
2017-02-14T03:41:37.434Z,1.08
2017-02-14T03:42:49.083Z,1.07
2017-02-14T03:44:00.761Z,1.04
2017-02-14T03:45:12.208Z,1.08
2017-02-14T03:46:23.645Z,1.04
2017-02-14T03:47:35.290Z,1.04
2017-02-14T03:48:46.724Z,1.12
2017-02-14T03:49:58.209Z,1.12
2017-02-14T03:51:09.652Z,1.03
2017-02-14T03:52:21.091Z,1.07
2017-02-14T03:53:32.518Z,1.07
2017-02-14T03:54:43.969Z,1.1
2017-02-14T03:55:55.452Z,1.21
2017-02-14T03:57:06.904Z,1.15
2017-02-14T03:58:18.342Z,1.2
2017-02-14T03:59:29.968Z,1.18
2017-02-14T04:00:41.410Z,1.14
2017-02-14T04:01:52.854Z,1.07
2017-02-14T04:03:04.480Z,1.14
2017-02-14T04:04:16.119Z,1.11
2017-02-14T04:05:27.597Z,1.1
2017-02-14T04:06:39.016Z,1.08
2017-02-14T04:07:50.458Z,0.97
2017-02-14T04:09:02.095Z,0.93
2017-02-14T04:10:13.575Z,0.84
2017-02-14T04:11:25.003Z,0.85
2017-02-14T04:12:36.430Z,0.93
2017-02-14T04:13:47.858Z,0.85
2017-02-14T04:14:59.308Z,0.81
2017-02-14T04:16:10.795Z,0.84
2017-02-14T04:17:22.236Z,0.92
2017-02-14T04:18:33.682Z,0.9
2017-02-14T04:19:45.308Z,0.92
2017-02-14T04:20:56.730Z,0.94
2017-02-14T04:22:08.193Z,0.93
2017-02-14T04:23:19.641Z,0.97
2017-02-14T04:24:31.058Z,0.93
2017-02-14T04:25:42.686Z,0.94
2017-02-14T04:26:54.164Z,0.97
2017-02-14T04:28:05.839Z,1.04
2017-02-14T04:29:17.481Z,0.94
2017-02-14T04:30:28.912Z,0.96
2017-02-14T04:31:40.534Z,0.89
2017-02-14T04:32:51.983Z,0.93
2017-02-14T04:34:03.646Z,0.86
2017-02-14T04:35:15.098Z,0.85
2017-02-14T04:36:26.520Z,0.76
2017-02-14T04:37:37.932Z,0.84
2017-02-14T04:38:49.427Z,0.75
2017-02-14T04:40:01.066Z,0.86
2017-02-14T04:41:12.518Z,0.85
2017-02-14T04:42:23.958Z,0.86
2017-02-14T04:43:35.394Z,0.78
2017-02-14T04:44:46.835Z,0.85
2017-02-14T04:45:58.295Z,0.85
2017-02-14T04:47:09.741Z,0.84
2017-02-14T04:48:21.233Z,0.82
2017-02-14T04:49:32.673Z,0.82
2017-02-14T04:50:44.133Z,0.74
2017-02-14T04:51:55.571Z,0.71
2017-02-14T04:53:07.008Z,0.69
2017-02-14T04:54:18.455Z,0.67
2017-02-14T04:55:29.893Z,0.74
2017-02-14T04:56:41.339Z,0.74
2017-02-14T04:57:52.973Z,0.72
2017-02-14T04:59:04.465Z,0.78
2017-02-14T05:00:15.915Z,0.71
2017-02-14T05:01:27.362Z,0.66
2017-02-14T05:02:38.813Z,0.66
2017-02-14T05:03:50.249Z,0.69
2017-02-14T05:05:01.887Z,0.58
2017-02-14T05:06:13.340Z,0.6
2017-02-14T05:07:24.764Z,0.53
2017-02-14T05:08:36.205Z,0.5
2017-02-14T05:09:47.678Z,0.42
2017-02-14T05:10:59.128Z,0.41
2017-02-14T05:12:10.770Z,0.38
2017-02-14T05:13:22.233Z,0.38
2017-02-14T05:14:33.658Z,0.34
2017-02-14T05:15:45.095Z,0.37
2017-02-14T05:16:56.563Z,0.38
2017-02-14T05:18:08.008Z,0.23
2017-02-14T05:19:19.436Z,0.31
2017-02-14T05:20:30.872Z,0.24
2017-02-14T05:21:42.502Z,0.27
2017-02-14T05:22:54.133Z,0.23
2017-02-14T05:24:05.748Z,0.21
2017-02-14T05:25:17.188Z,0.24
2017-02-14T05:26:28.673Z,0.2
2017-02-14T05:27:40.132Z,0.2
2017-02-14T05:28:51.791Z,0.13
2017-02-14T05:30:03.434Z,0.23
2017-02-14T05:31:15.267Z,0.23
2017-02-14T05:32:26.748Z,0.27
2017-02-14T05:33:38.183Z,0.19
2017-02-14T05:34:49.604Z,0.13
2017-02-14T05:36:01.057Z,0.27
2017-02-14T05:37:12.484Z,0.23
2017-02-14T05:38:23.906Z,0.21
2017-02-14T05:39:35.338Z,0.24
2017-02-14T05:40:46.765Z,0.23
2017-02-14T05:41:58.211Z,0.21
2017-02-14T05:43:09.700Z,0.27
2017-02-14T05:44:21.131Z,0.23
2017-02-14T05:45:32.785Z,0.21
2017-02-14T05:46:44.228Z,0.26
2017-02-14T05:47:55.854Z,0.24
2017-02-14T05:49:07.291Z,0.27
2017-02-14T05:50:18.734Z,0.21
2017-02-14T05:51:30.579Z,0.24
2017-02-14T05:52:42.026Z,0.31
2017-02-14T05:53:53.518Z,0.26
2017-02-14T05:55:04.964Z,0.27
2017-02-14T05:56:16.617Z,0.24
2017-02-14T05:57:28.067Z,0.2
2017-02-14T05:58:39.699Z,0.27
2017-02-14T05:59:51.131Z,0.27
2017-02-14T06:01:02.559Z,0.14
2017-02-14T06:02:13.985Z,0.19
2017-02-14T06:03:25.406Z,0.17
2017-02-14T06:04:36.839Z,0.17
2017-02-14T06:05:48.274Z,0.17
2017-02-14T06:06:59.698Z,0.19
2017-02-14T06:08:11.117Z,0.21
2017-02-14T06:09:22.540Z,0.2
2017-02-14T06:10:34.020Z,0.19
2017-02-14T06:11:45.445Z,0.13
2017-02-14T06:12:56.890Z,0.17
2017-02-14T06:14:08.328Z,0.1
2017-02-14T06:15:19.970Z,0.13
2017-02-14T06:16:31.595Z,0.1
2017-02-14T06:17:43.037Z,0.09
2017-02-14T06:18:54.516Z,-0.01
2017-02-14T06:20:06.002Z,0.05
2017-02-14T06:21:17.442Z,0.01
2017-02-14T06:22:28.866Z,0.01
2017-02-14T06:23:40.323Z,-0.05
2017-02-14T06:24:51.760Z,0.03
2017-02-14T06:26:03.198Z,0.05
2017-02-14T06:27:15.041Z,0.02
2017-02-14T06:28:26.515Z,0.03
2017-02-14T06:29:37.955Z,0.02
2017-02-14T06:30:49.451Z,0.03
2017-02-14T06:32:00.879Z,0.09
2017-02-14T06:33:12.336Z,0.09
2017-02-14T06:34:23.957Z,0.08
2017-02-14T06:35:35.602Z,0.09
2017-02-14T06:36:47.036Z,-0.04
2017-02-14T06:37:58.497Z,0.05
2017-02-14T06:39:09.930Z,-0.01
2017-02-14T06:40:21.365Z,-0.04
2017-02-14T06:41:32.846Z,-0.02
2017-02-14T06:42:44.273Z,-0.12
2017-02-14T06:43:55.720Z,-0.16
2017-02-14T06:45:07.163Z,-0.12
2017-02-14T06:46:18.627Z,-0.13
2017-02-14T06:47:30.454Z,-0.15
2017-02-14T06:48:41.902Z,-0.2
2017-02-14T06:49:53.545Z,-0.19
2017-02-14T06:51:04.996Z,-0.18
2017-02-14T06:52:16.435Z,-0.15
2017-02-14T06:53:27.874Z,-0.13
2017-02-14T06:54:39.284Z,-0.09
2017-02-14T06:55:50.724Z,-0.13
2017-02-14T06:57:02.156Z,-0.13
2017-02-14T06:58:13.663Z,-0.05
2017-02-14T06:59:25.103Z,-0.13
2017-02-14T07:00:36.519Z,-0.18
2017-02-14T07:01:47.954Z,-0.13
2017-02-14T07:02:59.406Z,-0.18
2017-02-14T07:04:10.840Z,-0.12
2017-02-14T07:05:22.261Z,-0.18
2017-02-14T07:06:33.688Z,-0.13
2017-02-14T07:07:45.123Z,-0.07
2017-02-14T07:08:56.601Z,-0.04
2017-02-14T07:10:08.034Z,-0.01
2017-02-14T07:11:19.460Z,0.03
2017-02-14T07:12:30.900Z,0.01
2017-02-14T07:13:42.336Z,0.03
2017-02-14T07:14:53.777Z,0.08
2017-02-14T07:16:05.210Z,0.2
2017-02-14T07:17:16.642Z,0.23
2017-02-14T07:18:28.067Z,0.26
2017-02-14T07:19:39.759Z,0.39
2017-02-14T07:20:51.184Z,0.42
2017-02-14T07:22:03.059Z,0.5
2017-02-14T07:23:14.515Z,0.52
2017-02-14T07:24:25.953Z,0.53
2017-02-14T07:25:37.372Z,0.57
2017-02-14T07:26:49.025Z,0.57
2017-02-14T07:28:00.469Z,0.66
2017-02-14T07:29:11.913Z,0.76
2017-02-14T07:30:23.414Z,0.94
2017-02-14T07:31:35.056Z,1.12
2017-02-14T07:32:46.900Z,1.11
2017-02-14T07:33:58.350Z,1.3
2017-02-14T07:35:09.783Z,1.51
2017-02-14T07:36:21.265Z,1.65
2017-02-14T07:37:32.699Z,1.79
2017-02-14T07:38:44.350Z,2.12
2017-02-14T07:39:55.776Z,2.23
2017-02-14T07:41:07.258Z,2.38
2017-02-14T07:42:18.720Z,2.44
2017-02-14T07:43:30.147Z,2.38
2017-02-14T07:44:41.576Z,2.42
2017-02-14T07:45:53.020Z,2.48
2017-02-14T07:47:04.462Z,2.38
2017-02-14T07:48:15.905Z,2.4
2017-02-14T07:49:27.343Z,2.4
2017-02-14T07:50:39.194Z,2.48
2017-02-14T07:51:50.671Z,2.62
2017-02-14T07:53:02.093Z,2.7
2017-02-14T07:54:13.535Z,2.77
2017-02-14T07:55:25.171Z,2.6
2017-02-14T07:56:36.615Z,2.7
2017-02-14T07:57:48.077Z,3.05
2017-02-14T07:58:59.530Z,3.27
2017-02-14T08:00:10.971Z,3.58
2017-02-14T08:01:22.409Z,3.84
2017-02-14T08:02:33.913Z,4.08
2017-02-14T08:03:45.377Z,4.2
2017-02-14T08:04:56.846Z,4.39
2017-02-14T08:06:08.280Z,4.48
2017-02-14T08:07:19.741Z,4.48
2017-02-14T08:08:31.186Z,4.38
2017-02-14T08:09:42.835Z,4.26
2017-02-14T08:10:54.468Z,4.4
2017-02-14T08:12:06.111Z,4.44
2017-02-14T08:13:17.763Z,4.46
2017-02-14T08:14:29.204Z,4.58
2017-02-14T08:15:40.643Z,4.61
2017-02-14T08:16:52.107Z,4.78
2017-02-14T08:18:03.593Z,4.97
2017-02-14T08:19:15.084Z,4.92
2017-02-14T08:20:26.536Z,4.9
2017-02-14T08:21:38.200Z,5.02
2017-02-14T08:22:49.824Z,5.12
2017-02-14T08:24:01.297Z,5.39
2017-02-14T08:25:12.743Z,5.39
2017-02-14T08:26:24.203Z,5.37
2017-02-14T08:27:35.646Z,5.34
2017-02-14T08:28:47.149Z,5.13
2017-02-14T08:29:58.613Z,5.1
2017-02-14T08:31:10.059Z,5.16
2017-02-14T08:32:21.490Z,5.3
2017-02-14T08:33:32.919Z,5.72
2017-02-14T08:34:44.373Z,6
2017-02-14T08:35:55.845Z,6.29
2017-02-14T08:37:07.298Z,6.55
2017-02-14T08:38:18.761Z,6.88
2017-02-14T08:39:30.274Z,7.03
2017-02-14T08:40:41.718Z,7.21
2017-02-14T08:41:53.184Z,7.23
2017-02-14T08:43:04.647Z,7.22
2017-02-14T08:44:16.101Z,7.44
2017-02-14T08:45:27.563Z,7.52
2017-02-14T08:46:39.024Z,7.64
2017-02-14T08:47:50.691Z,7.77
2017-02-14T08:49:02.164Z,7.88
2017-02-14T08:50:13.663Z,7.92
2017-02-14T08:51:25.119Z,7.89
2017-02-14T08:52:36.583Z,8.06
2017-02-14T08:53:48.020Z,7.88
2017-02-14T08:54:59.677Z,8.06
2017-02-14T08:56:11.163Z,8.14
2017-02-14T08:57:22.616Z,8.34
2017-02-14T08:58:34.275Z,8.53
2017-02-14T08:59:46.137Z,8.77
2017-02-14T09:00:57.593Z,8.95
2017-02-14T09:02:09.079Z,9.08
2017-02-14T09:03:20.537Z,8.98
2017-02-14T09:04:32.178Z,8.76
2017-02-14T09:05:43.641Z,8.57
2017-02-14T09:06:55.133Z,8.46
2017-02-14T09:08:06.588Z,8.11
2017-02-14T09:09:18.043Z,7.85
2017-02-14T09:10:29.512Z,7.75
2017-02-14T09:11:40.981Z,7.71
2017-02-14T09:12:52.464Z,7.82
2017-02-14T09:14:03.920Z,7.83
2017-02-14T09:15:15.392Z,7.93
2017-02-14T09:16:26.829Z,8.01
2017-02-14T09:17:38.327Z,8.07
2017-02-14T09:18:49.821Z,7.93
2017-02-14T09:20:01.287Z,8.09
2017-02-14T09:21:12.731Z,7.95
2017-02-14T09:22:24.177Z,7.98
2017-02-14T09:23:35.662Z,8.01
2017-02-14T09:24:47.305Z,8.04
2017-02-14T09:25:58.774Z,7.96
2017-02-14T09:27:10.222Z,7.91
2017-02-14T09:28:21.872Z,7.92
2017-02-14T09:29:33.576Z,7.88
2017-02-14T09:30:45.040Z,7.95
2017-02-14T09:31:56.697Z,8.43
2017-02-14T09:33:08.145Z,8.9
2017-02-14T09:34:20.004Z,9.2
2017-02-14T09:35:31.461Z,9.39
2017-02-14T09:36:43.107Z,9.35
2017-02-14T09:37:54.551Z,9.62
2017-02-14T09:39:06.018Z,9.78
2017-02-14T09:40:17.550Z,9.99
2017-02-14T09:41:29.015Z,9.99
2017-02-14T09:42:40.456Z,10.08
2017-02-14T09:43:51.932Z,10.13
2017-02-14T09:45:03.401Z,10.28
2017-02-14T09:46:14.926Z,10.31
2017-02-14T09:47:26.390Z,10.17
2017-02-14T09:48:37.852Z,10.2
2017-02-14T09:49:49.323Z,10.38
2017-02-14T09:51:00.835Z,10.61
2017-02-14T09:52:12.314Z,10.97
2017-02-14T09:53:23.774Z,11.05
2017-02-14T09:54:35.248Z,11.06
2017-02-14T09:55:46.698Z,10.97
2017-02-14T09:56:58.148Z,11
2017-02-14T09:58:09.621Z,11.34
2017-02-14T09:59:21.066Z,11.64
2017-02-14T10:00:32.925Z,11.81
2017-02-14T10:01:44.447Z,11.89
2017-02-14T10:02:56.120Z,11.82
2017-02-14T10:04:07.573Z,11.7
2017-02-14T10:05:19.032Z,11.76
2017-02-14T10:06:30.498Z,11.67
2017-02-14T10:07:41.974Z,11.68
2017-02-14T10:08:53.447Z,11.81
2017-02-14T10:10:04.923Z,11.86
2017-02-14T10:11:16.375Z,11.89
2017-02-14T10:12:27.890Z,12.04
2017-02-14T10:13:39.356Z,12.04
2017-02-14T10:14:50.818Z,11.86
2017-02-14T10:16:02.468Z,11.91
2017-02-14T10:17:13.925Z,11.75
2017-02-14T10:18:25.402Z,11.86
2017-02-14T10:19:36.874Z,11.85
2017-02-14T10:20:48.335Z,11.97
2017-02-14T10:21:59.806Z,11.86
2017-02-14T10:23:11.326Z,11.86
2017-02-14T10:24:22.781Z,11.98
2017-02-14T10:25:34.241Z,12.1
2017-02-14T10:26:45.684Z,12.11
2017-02-14T10:27:57.150Z,12.31
2017-02-14T10:29:08.616Z,12.43
2017-02-14T10:30:20.089Z,12.52
2017-02-14T10:31:31.556Z,12.41
2017-02-14T10:32:43.011Z,12.58
2017-02-14T10:33:54.528Z,12.4
2017-02-14T10:35:06.181Z,12.41
2017-02-14T10:36:17.692Z,12.43
2017-02-14T10:37:29.362Z,12.44
2017-02-14T10:38:41.011Z,12.76
2017-02-14T10:39:52.472Z,12.94
2017-02-14T10:41:03.936Z,13.25
2017-02-14T10:42:15.394Z,13.36
2017-02-14T10:43:26.854Z,13.54
2017-02-14T10:44:38.341Z,13.57
2017-02-14T10:45:49.811Z,13.63
2017-02-14T10:47:01.286Z,13.73
2017-02-14T10:48:12.737Z,13.84
2017-02-14T10:49:24.195Z,13.86
2017-02-14T10:50:35.730Z,13.97
2017-02-14T10:51:47.401Z,14.05
2017-02-14T10:52:58.894Z,13.94
2017-02-14T10:54:10.343Z,14.06
2017-02-14T10:55:21.798Z,14.31
2017-02-14T10:56:33.259Z,14.59
2017-02-14T10:57:44.719Z,14.95
2017-02-14T10:58:56.181Z,15.08
2017-02-14T11:00:07.695Z,15.33
2017-02-14T11:01:19.186Z,15.59
2017-02-14T11:02:30.649Z,15.7
2017-02-14T11:03:42.107Z,15.62
2017-02-14T11:04:53.577Z,15.63
2017-02-14T11:06:05.040Z,15.91
2017-02-14T11:07:16.504Z,15.92
2017-02-14T11:08:27.998Z,15.83
2017-02-14T11:09:39.450Z,15.84
2017-02-14T11:10:50.968Z,15.77
2017-02-14T11:12:02.424Z,15.91
2017-02-14T11:13:14.087Z,16.14
2017-02-14T11:14:25.541Z,16.27
2017-02-14T11:15:37.018Z,16.48
2017-02-14T11:16:48.499Z,16.62
2017-02-14T11:17:59.969Z,16.65
2017-02-14T11:19:11.413Z,16.21
2017-02-14T11:20:23.096Z,16.11
2017-02-14T11:21:34.646Z,16.29
2017-02-14T11:22:46.319Z,16.32
2017-02-14T11:23:57.797Z,16.52
2017-02-14T11:25:09.283Z,16.92
2017-02-14T11:26:20.740Z,17.06
2017-02-14T11:27:32.192Z,17.21
2017-02-14T11:28:43.670Z,17.12
2017-02-14T11:29:55.149Z,17.05
2017-02-14T11:31:06.617Z,16.7
2017-02-14T11:32:18.069Z,16.58
2017-02-14T11:33:29.546Z,16.54
2017-02-14T11:34:40.992Z,16.21
2017-02-14T11:35:52.668Z,15.92
2017-02-14T11:37:04.139Z,15.74
2017-02-14T11:38:15.616Z,15.65
2017-02-14T11:39:27.098Z,15.77
2017-02-14T11:40:38.562Z,15.84
2017-02-14T11:41:50.042Z,15.84
2017-02-14T11:43:01.763Z,15.75
2017-02-14T11:44:13.241Z,15.62
2017-02-14T11:45:24.692Z,15.56
2017-02-14T11:46:36.162Z,15.77
2017-02-14T11:47:47.623Z,15.89
2017-02-14T11:48:59.096Z,15.99
2017-02-14T11:50:10.752Z,16.11
2017-02-14T11:51:22.213Z,16.11
2017-02-14T11:52:33.685Z,15.88
2017-02-14T11:53:45.200Z,15.98
2017-02-14T11:54:56.653Z,15.93
2017-02-14T11:56:08.094Z,16.02
2017-02-14T11:57:19.555Z,15.7
2017-02-14T11:58:31.021Z,15.6
2017-02-14T11:59:42.461Z,15.44
2017-02-14T12:00:53.920Z,15.37
2017-02-14T12:02:05.390Z,15.26
2017-02-14T12:03:16.848Z,15.47
2017-02-14T12:04:28.351Z,15.67
2017-02-14T12:05:39.809Z,15.92
2017-02-14T12:06:51.272Z,15.95
2017-02-14T12:08:02.714Z,15.93
2017-02-14T12:09:14.203Z,15.98
2017-02-14T12:10:25.667Z,15.6
2017-02-14T12:11:37.322Z,15.37
2017-02-14T12:12:48.802Z,15.23
2017-02-14T12:14:00.263Z,14.98
2017-02-14T12:15:11.781Z,14.8
2017-02-14T12:16:23.261Z,14.77
2017-02-14T12:17:35.131Z,14.63
2017-02-14T12:18:46.573Z,14.64
2017-02-14T12:19:58.045Z,14.64
2017-02-14T12:21:09.759Z,14.66
2017-02-14T12:22:21.208Z,14.53
2017-02-14T12:23:32.645Z,14.39
2017-02-14T12:24:44.293Z,14.09
2017-02-14T12:25:55.751Z,14.06
2017-02-14T12:27:07.404Z,14.24
2017-02-14T12:28:19.088Z,14.19
2017-02-14T12:29:30.536Z,14.06
2017-02-14T12:30:42.006Z,13.83
2017-02-14T12:31:53.510Z,13.81
2017-02-14T12:33:04.960Z,13.7
2017-02-14T12:34:16.412Z,13.63
2017-02-14T12:35:27.859Z,13.55
2017-02-14T12:36:39.306Z,13.62
2017-02-14T12:37:50.743Z,13.51
2017-02-14T12:39:02.210Z,13.32
2017-02-14T12:40:13.656Z,13.36
2017-02-14T12:41:25.309Z,13.44
2017-02-14T12:42:37.212Z,13.5
2017-02-14T12:43:48.654Z,13.58
2017-02-14T12:45:00.110Z,13.69
2017-02-14T12:46:11.752Z,13.79
2017-02-14T12:47:23.190Z,13.87
2017-02-14T12:48:34.658Z,13.95
2017-02-14T12:49:46.116Z,13.87
2017-02-14T12:50:57.588Z,14.05
2017-02-14T12:52:09.037Z,14.06
2017-02-14T12:53:20.559Z,14.45
2017-02-14T12:54:32.046Z,14.51
2017-02-14T12:55:43.513Z,14.59
2017-02-14T12:56:55.176Z,14.64
2017-02-14T12:58:06.646Z,14.69
2017-02-14T12:59:18.096Z,14.59
2017-02-14T13:00:29.784Z,14.57
2017-02-14T13:01:41.244Z,14.36
2017-02-14T13:02:52.702Z,14.26
2017-02-14T13:04:04.159Z,14.12
2017-02-14T13:05:15.818Z,13.99
2017-02-14T13:06:27.477Z,14.15
2017-02-14T13:07:38.920Z,14.12
2017-02-14T13:08:50.367Z,14.08
2017-02-14T13:10:01.893Z,13.91
2017-02-14T13:11:13.347Z,13.87
2017-02-14T13:12:24.998Z,13.99
2017-02-14T13:13:36.645Z,14.08
2017-02-14T13:14:48.112Z,14.34
2017-02-14T13:15:59.570Z,14.23
2017-02-14T13:17:11.082Z,14.15
2017-02-14T13:18:22.528Z,14.05
2017-02-14T13:19:34.238Z,13.97
2017-02-14T13:20:45.699Z,13.94
2017-02-14T13:21:57.151Z,14.2
2017-02-14T13:23:08.620Z,14.21
2017-02-14T13:24:20.071Z,14.2
2017-02-14T13:25:31.514Z,14.46
2017-02-14T13:26:43.161Z,14.52
2017-02-14T13:27:54.630Z,14.6
2017-02-14T13:29:06.077Z,14.34
2017-02-14T13:30:17.568Z,14.23
2017-02-14T13:31:29.037Z,13.95
2017-02-14T13:32:40.540Z,13.86
2017-02-14T13:33:52.008Z,13.78
2017-02-14T13:35:03.460Z,13.9
2017-02-14T13:36:14.919Z,14.11
2017-02-14T13:37:26.378Z,14.28
2017-02-14T13:38:37.835Z,14.53
2017-02-14T13:39:49.476Z,14.44
2017-02-14T13:41:00.989Z,14.53
2017-02-14T13:42:12.436Z,14.6
2017-02-14T13:43:24.088Z,14.6
2017-02-14T13:44:35.735Z,14.61
2017-02-14T13:45:47.393Z,14.56
2017-02-14T13:46:58.840Z,14.46
2017-02-14T13:48:10.311Z,14.21
2017-02-14T13:49:21.976Z,14.03
2017-02-14T13:50:33.437Z,13.84
2017-02-14T13:51:44.878Z,13.83
2017-02-14T13:52:56.529Z,13.65
2017-02-14T13:54:07.975Z,13.39
2017-02-14T13:55:19.799Z,13.35
2017-02-14T13:56:31.267Z,13.16
2017-02-14T13:57:42.804Z,13.16
2017-02-14T13:58:54.244Z,13.06
2017-02-14T14:00:05.713Z,12.74
2017-02-14T14:01:17.163Z,12.61
2017-02-14T14:02:28.606Z,12.48
2017-02-14T14:03:40.071Z,12.41
2017-02-14T14:04:51.543Z,12.43
2017-02-14T14:06:03.013Z,12.29
2017-02-14T14:07:14.451Z,12.26
2017-02-14T14:08:25.948Z,12.08
2017-02-14T14:09:37.380Z,12.01
2017-02-14T14:10:48.836Z,11.86
2017-02-14T14:12:00.264Z,11.86
2017-02-14T14:13:11.719Z,11.63
2017-02-14T14:14:23.152Z,11.59
2017-02-14T14:15:34.595Z,11.6
2017-02-14T14:16:46.051Z,11.57
2017-02-14T14:17:57.487Z,11.6
2017-02-14T14:19:08.994Z,11.56
2017-02-14T14:20:20.439Z,11.56
2017-02-14T14:21:32.083Z,11.49
2017-02-14T14:22:43.515Z,11.43
2017-02-14T14:23:55.013Z,11.45
2017-02-14T14:25:06.445Z,11.35
2017-02-14T14:26:18.092Z,11.39
2017-02-14T14:27:29.533Z,11.3
2017-02-14T14:28:41.184Z,11.2
2017-02-14T14:29:52.686Z,11.12
2017-02-14T14:31:04.131Z,11.15
2017-02-14T14:32:15.597Z,11.05
2017-02-14T14:33:27.060Z,11.1
2017-02-14T14:34:38.506Z,11.08
2017-02-14T14:35:49.951Z,11.06
2017-02-14T14:37:01.382Z,11.09
2017-02-14T14:38:12.831Z,11.06
2017-02-14T14:39:24.269Z,11.09
2017-02-14T14:40:35.927Z,11.12
2017-02-14T14:41:47.413Z,11.16
2017-02-14T14:42:58.864Z,11.16
2017-02-14T14:44:10.316Z,11.26
2017-02-14T14:45:21.750Z,11.21
2017-02-14T14:46:33.213Z,11.16
2017-02-14T14:47:44.670Z,11.09
2017-02-14T14:48:56.307Z,11.02
2017-02-14T14:50:07.780Z,11.08
2017-02-14T14:51:19.276Z,10.98
2017-02-14T14:52:30.739Z,11.13
2017-02-14T14:53:42.397Z,11.02
2017-02-14T14:54:53.844Z,11.1
2017-02-14T14:56:05.331Z,10.94
2017-02-14T14:57:16.811Z,11
2017-02-14T14:58:28.467Z,11
2017-02-14T14:59:39.912Z,10.92
2017-02-14T15:00:51.346Z,10.94
2017-02-14T15:02:03.045Z,10.91
2017-02-14T15:03:14.505Z,10.9
2017-02-14T15:04:25.988Z,10.9
2017-02-14T15:05:37.634Z,10.91
2017-02-14T15:06:49.087Z,10.85
2017-02-14T15:08:00.549Z,10.73
2017-02-14T15:09:12.017Z,10.8
2017-02-14T15:10:23.460Z,10.8
2017-02-14T15:11:34.902Z,10.8
2017-02-14T15:12:46.604Z,10.8
2017-02-14T15:13:58.049Z,10.73
2017-02-14T15:15:09.495Z,10.79
2017-02-14T15:16:20.954Z,10.75
2017-02-14T15:17:32.405Z,10.77
2017-02-14T15:18:43.870Z,10.79
2017-02-14T15:19:55.319Z,10.67
2017-02-14T15:21:06.977Z,10.67
2017-02-14T15:22:18.434Z,10.66
2017-02-14T15:23:30.161Z,10.63
2017-02-14T15:24:42.070Z,10.66
2017-02-14T15:25:53.711Z,10.66
2017-02-14T15:27:05.176Z,10.61
2017-02-14T15:28:16.615Z,10.58
2017-02-14T15:29:28.084Z,10.58
2017-02-14T15:30:39.542Z,10.52
2017-02-14T15:31:51.194Z,10.47
2017-02-14T15:33:02.657Z,10.52
2017-02-14T15:34:14.195Z,10.49
2017-02-14T15:35:25.678Z,10.47
2017-02-14T15:36:37.380Z,10.42
2017-02-14T15:37:48.845Z,10.33
2017-02-14T15:39:00.525Z,10.25
2017-02-14T15:40:11.960Z,10.21
2017-02-14T15:41:23.620Z,10.13